sensor_id;sensor_type;location;lat;lon;timestamp;temperature;humidity
37782;DHT22;23621;50.878;4.584;2023-07-13T00:00:20;25.10;58.70
37782;DHT22;23621;50.878;4.584;2023-07-13T00:03:07;25.10;58.90
37782;DHT22;23621;50.878;4.584;2023-07-13T00:06:00;25.00;59.10
37782;DHT22;23621;50.878;4.584;2023-07-13T00:08:47;24.90;59.30
37782;DHT22;23621;50.878;4.584;2023-07-13T00:11:35;24.90;59.40
37782;DHT22;23621;50.878;4.584;2023-07-13T00:14:24;24.90;59.40
37782;DHT22;23621;50.878;4.584;2023-07-13T00:17:12;24.90;59.50
37782;DHT22;23621;50.878;4.584;2023-07-13T00:20:00;24.90;59.60
37782;DHT22;23621;50.878;4.584;2023-07-13T00:22:47;24.90;59.50
37782;DHT22;23621;50.878;4.584;2023-07-13T00:25:34;24.90;59.60
37782;DHT22;23621;50.878;4.584;2023-07-13T00:28:22;24.80;59.50
37782;DHT22;23621;50.878;4.584;2023-07-13T00:31:10;24.80;59.80
37782;DHT22;23621;50.878;4.584;2023-07-13T00:33:58;24.80;60.00
37782;DHT22;23621;50.878;4.584;2023-07-13T00:36:47;24.80;59.90
37782;DHT22;23621;50.878;4.584;2023-07-13T00:39:35;24.80;60.00
37782;DHT22;23621;50.878;4.584;2023-07-13T00:42:22;24.80;60.00
37782;DHT22;23621;50.878;4.584;2023-07-13T00:47:59;24.70;60.30
37782;DHT22;23621;50.878;4.584;2023-07-13T00:50:50;24.70;60.40
37782;DHT22;23621;50.878;4.584;2023-07-13T00:53:38;24.70;60.50
37782;DHT22;23621;50.878;4.584;2023-07-13T00:56:26;24.80;60.40
37782;DHT22;23621;50.878;4.584;2023-07-13T00:59:16;24.80;60.40
37782;DHT22;23621;50.878;4.584;2023-07-13T01:02:06;24.70;60.50
37782;DHT22;23621;50.878;4.584;2023-07-13T01:04:53;24.70;60.60
37782;DHT22;23621;50.878;4.584;2023-07-13T01:07:41;24.60;60.70
37782;DHT22;23621;50.878;4.584;2023-07-13T01:10:30;24.50;60.80
37782;DHT22;23621;50.878;4.584;2023-07-13T01:13:26;24.50;61.00
37782;DHT22;23621;50.878;4.584;2023-07-13T01:16:18;24.50;61.00
37782;DHT22;23621;50.878;4.584;2023-07-13T01:22:23;24.40;61.30
37782;DHT22;23621;50.878;4.584;2023-07-13T01:25:12;24.40;61.20
37782;DHT22;23621;50.878;4.584;2023-07-13T01:28:00;24.40;61.40
37782;DHT22;23621;50.878;4.584;2023-07-13T01:30:47;24.50;61.40
37782;DHT22;23621;50.878;4.584;2023-07-13T01:33:36;24.50;61.40
37782;DHT22;23621;50.878;4.584;2023-07-13T01:36:23;24.60;61.60
37782;DHT22;23621;50.878;4.584;2023-07-13T01:39:10;24.60;61.50
37782;DHT22;23621;50.878;4.584;2023-07-13T01:41:58;24.60;61.30
37782;DHT22;23621;50.878;4.584;2023-07-13T01:44:45;24.60;61.20
37782;DHT22;23621;50.878;4.584;2023-07-13T01:47:32;24.60;61.30
37782;DHT22;23621;50.878;4.584;2023-07-13T01:50:20;24.60;62.10
37782;DHT22;23621;50.878;4.584;2023-07-13T01:53:07;24.60;61.30
37782;DHT22;23621;50.878;4.584;2023-07-13T01:55:55;24.60;61.40
37782;DHT22;23621;50.878;4.584;2023-07-13T01:58:42;24.50;61.50
37782;DHT22;23621;50.878;4.584;2023-07-13T02:01:29;24.50;61.60
37782;DHT22;23621;50.878;4.584;2023-07-13T02:04:17;24.50;61.80
37782;DHT22;23621;50.878;4.584;2023-07-13T02:07:04;24.40;61.80
37782;DHT22;23621;50.878;4.584;2023-07-13T02:09:51;24.40;61.80
37782;DHT22;23621;50.878;4.584;2023-07-13T02:12:40;24.40;61.90
37782;DHT22;23621;50.878;4.584;2023-07-13T02:15:27;24.40;62.00
37782;DHT22;23621;50.878;4.584;2023-07-13T02:18:14;24.40;61.80
37782;DHT22;23621;50.878;4.584;2023-07-13T02:21:04;24.40;62.10
37782;DHT22;23621;50.878;4.584;2023-07-13T02:23:51;24.40;62.10
37782;DHT22;23621;50.878;4.584;2023-07-13T02:26:39;24.40;62.20
37782;DHT22;23621;50.878;4.584;2023-07-13T02:29:26;24.30;62.20
37782;DHT22;23621;50.878;4.584;2023-07-13T02:32:13;24.20;62.30
37782;DHT22;23621;50.878;4.584;2023-07-13T02:35:01;24.10;62.30
37782;DHT22;23621;50.878;4.584;2023-07-13T02:37:49;24.10;62.70
37782;DHT22;23621;50.878;4.584;2023-07-13T02:40:36;24.00;62.80
37782;DHT22;23621;50.878;4.584;2023-07-13T02:43:23;24.10;62.90
37782;DHT22;23621;50.878;4.584;2023-07-13T02:46:11;24.10;62.90
37782;DHT22;23621;50.878;4.584;2023-07-13T02:48:58;24.10;63.00
37782;DHT22;23621;50.878;4.584;2023-07-13T02:51:46;24.10;63.00
37782;DHT22;23621;50.878;4.584;2023-07-13T02:54:33;24.10;63.10
37782;DHT22;23621;50.878;4.584;2023-07-13T02:57:20;24.00;63.20
37782;DHT22;23621;50.878;4.584;2023-07-13T03:00:08;24.00;63.40
37782;DHT22;23621;50.878;4.584;2023-07-13T03:02:56;23.90;63.50
37782;DHT22;23621;50.878;4.584;2023-07-13T03:05:45;23.90;63.70
37782;DHT22;23621;50.878;4.584;2023-07-13T03:08:37;23.80;63.70
37782;DHT22;23621;50.878;4.584;2023-07-13T03:11:24;23.80;63.70
37782;DHT22;23621;50.878;4.584;2023-07-13T03:14:11;23.80;63.70
37782;DHT22;23621;50.878;4.584;2023-07-13T03:16:59;23.70;63.80
37782;DHT22;23621;50.878;4.584;2023-07-13T03:19:46;23.70;63.90
37782;DHT22;23621;50.878;4.584;2023-07-13T03:22:36;23.70;64.10
37782;DHT22;23621;50.878;4.584;2023-07-13T03:25:23;23.70;64.10
37782;DHT22;23621;50.878;4.584;2023-07-13T03:28:14;23.70;64.20
37782;DHT22;23621;50.878;4.584;2023-07-13T03:31:04;23.70;64.30
37782;DHT22;23621;50.878;4.584;2023-07-13T03:33:52;23.60;64.30
37782;DHT22;23621;50.878;4.584;2023-07-13T03:36:39;23.60;64.50
37782;DHT22;23621;50.878;4.584;2023-07-13T03:39:26;23.60;64.60
37782;DHT22;23621;50.878;4.584;2023-07-13T03:42:14;23.60;64.60
37782;DHT22;23621;50.878;4.584;2023-07-13T03:45:01;23.60;64.60
37782;DHT22;23621;50.878;4.584;2023-07-13T03:47:48;23.60;64.70
37782;DHT22;23621;50.878;4.584;2023-07-13T03:50:35;23.60;64.80
37782;DHT22;23621;50.878;4.584;2023-07-13T03:53:22;23.50;64.80
37782;DHT22;23621;50.878;4.584;2023-07-13T03:56:10;23.50;65.00
37782;DHT22;23621;50.878;4.584;2023-07-13T03:58:58;23.50;65.00
37782;DHT22;23621;50.878;4.584;2023-07-13T04:01:45;23.50;65.20
37782;DHT22;23621;50.878;4.584;2023-07-13T04:04:33;23.50;65.30
37782;DHT22;23621;50.878;4.584;2023-07-13T04:07:21;23.40;65.50
37782;DHT22;23621;50.878;4.584;2023-07-13T04:10:08;23.40;65.80
37782;DHT22;23621;50.878;4.584;2023-07-13T04:12:55;23.40;66.10
37782;DHT22;23621;50.878;4.584;2023-07-13T04:15:43;23.40;66.10
37782;DHT22;23621;50.878;4.584;2023-07-13T04:18:30;23.40;66.20
37782;DHT22;23621;50.878;4.584;2023-07-13T04:21:17;23.40;67.20
37782;DHT22;23621;50.878;4.584;2023-07-13T04:24:05;23.30;66.40
37782;DHT22;23621;50.878;4.584;2023-07-13T04:26:52;23.40;66.50
37782;DHT22;23621;50.878;4.584;2023-07-13T04:29:39;23.40;66.50
37782;DHT22;23621;50.878;4.584;2023-07-13T04:32:26;23.40;66.60
37782;DHT22;23621;50.878;4.584;2023-07-13T04:35:13;23.40;66.70
37782;DHT22;23621;50.878;4.584;2023-07-13T04:38:01;23.40;67.00
37782;DHT22;23621;50.878;4.584;2023-07-13T04:40:49;23.30;67.20
37782;DHT22;23621;50.878;4.584;2023-07-13T04:43:36;23.30;67.30
37782;DHT22;23621;50.878;4.584;2023-07-13T04:46:23;23.20;67.60
37782;DHT22;23621;50.878;4.584;2023-07-13T04:49:11;23.20;67.60
37782;DHT22;23621;50.878;4.584;2023-07-13T04:51:58;23.20;68.00
37782;DHT22;23621;50.878;4.584;2023-07-13T04:54:45;23.20;68.00
37782;DHT22;23621;50.878;4.584;2023-07-13T04:57:32;23.30;67.90
37782;DHT22;23621;50.878;4.584;2023-07-13T05:00:19;23.30;67.90
37782;DHT22;23621;50.878;4.584;2023-07-13T05:03:07;23.40;68.10
37782;DHT22;23621;50.878;4.584;2023-07-13T05:05:56;23.30;68.20
37782;DHT22;23621;50.878;4.584;2023-07-13T05:08:43;23.40;68.40
37782;DHT22;23621;50.878;4.584;2023-07-13T05:11:30;23.50;68.40
37782;DHT22;23621;50.878;4.584;2023-07-13T05:14:17;23.50;68.40
37782;DHT22;23621;50.878;4.584;2023-07-13T05:17:05;23.60;68.40
37782;DHT22;23621;50.878;4.584;2023-07-13T05:19:52;23.60;68.20
37782;DHT22;23621;50.878;4.584;2023-07-13T05:22:39;23.60;68.20
37782;DHT22;23621;50.878;4.584;2023-07-13T05:25:26;23.70;68.30
37782;DHT22;23621;50.878;4.584;2023-07-13T05:28:13;23.70;68.20
37782;DHT22;23621;50.878;4.584;2023-07-13T05:31:01;23.70;68.20
37782;DHT22;23621;50.878;4.584;2023-07-13T05:33:48;23.80;68.20
37782;DHT22;23621;50.878;4.584;2023-07-13T05:36:35;23.70;68.40
37782;DHT22;23621;50.878;4.584;2023-07-13T05:39:22;23.70;68.20
37782;DHT22;23621;50.878;4.584;2023-07-13T05:42:10;23.80;68.20
37782;DHT22;23621;50.878;4.584;2023-07-13T05:44:57;23.90;68.10
37782;DHT22;23621;50.878;4.584;2023-07-13T05:47:44;23.80;68.20
37782;DHT22;23621;50.878;4.584;2023-07-13T05:50:31;23.90;68.20
37782;DHT22;23621;50.878;4.584;2023-07-13T05:53:19;23.90;68.20
37782;DHT22;23621;50.878;4.584;2023-07-13T05:56:06;24.00;68.30
37782;DHT22;23621;50.878;4.584;2023-07-13T05:58:53;23.90;68.30
37782;DHT22;23621;50.878;4.584;2023-07-13T06:01:41;24.00;68.40
37782;DHT22;23621;50.878;4.584;2023-07-13T06:04:28;24.00;68.40
37782;DHT22;23621;50.878;4.584;2023-07-13T06:07:15;24.00;68.50
37782;DHT22;23621;50.878;4.584;2023-07-13T06:10:03;24.00;68.50
37782;DHT22;23621;50.878;4.584;2023-07-13T06:12:50;24.00;68.60
37782;DHT22;23621;50.878;4.584;2023-07-13T06:15:38;24.00;68.30
37782;DHT22;23621;50.878;4.584;2023-07-13T06:18:25;24.10;68.40
37782;DHT22;23621;50.878;4.584;2023-07-13T06:21:17;24.10;68.20
37782;DHT22;23621;50.878;4.584;2023-07-13T06:24:05;24.00;68.70
37782;DHT22;23621;50.878;4.584;2023-07-13T06:26:52;24.00;68.70
37782;DHT22;23621;50.878;4.584;2023-07-13T06:29:39;24.00;68.70
37782;DHT22;23621;50.878;4.584;2023-07-13T06:32:27;24.00;68.70
37782;DHT22;23621;50.878;4.584;2023-07-13T06:35:14;24.00;68.80
37782;DHT22;23621;50.878;4.584;2023-07-13T06:38:02;24.10;68.80
37782;DHT22;23621;50.878;4.584;2023-07-13T06:40:49;24.10;68.70
37782;DHT22;23621;50.878;4.584;2023-07-13T06:43:36;24.10;68.60
37782;DHT22;23621;50.878;4.584;2023-07-13T06:46:23;24.20;68.60
37782;DHT22;23621;50.878;4.584;2023-07-13T06:49:11;24.30;68.60
37782;DHT22;23621;50.878;4.584;2023-07-13T06:51:58;24.50;68.70
37782;DHT22;23621;50.878;4.584;2023-07-13T06:54:45;24.50;68.50
37782;DHT22;23621;50.878;4.584;2023-07-13T06:57:33;24.60;68.40
37782;DHT22;23621;50.878;4.584;2023-07-13T07:00:20;24.50;68.40
37782;DHT22;23621;50.878;4.584;2023-07-13T07:03:07;24.60;68.50
37782;DHT22;23621;50.878;4.584;2023-07-13T07:06:01;24.60;68.40
37782;DHT22;23621;50.878;4.584;2023-07-13T07:08:48;24.70;68.60
37782;DHT22;23621;50.878;4.584;2023-07-13T07:11:35;24.60;68.40
37782;DHT22;23621;50.878;4.584;2023-07-13T07:14:22;24.60;68.40
37782;DHT22;23621;50.878;4.584;2023-07-13T07:17:10;24.70;68.30
37782;DHT22;23621;50.878;4.584;2023-07-13T07:19:57;24.80;68.30
37782;DHT22;23621;50.878;4.584;2023-07-13T07:22:44;24.70;68.40
37782;DHT22;23621;50.878;4.584;2023-07-13T07:25:31;24.80;68.20
37782;DHT22;23621;50.878;4.584;2023-07-13T07:28:21;25.00;68.10
37782;DHT22;23621;50.878;4.584;2023-07-13T07:31:11;25.10;67.70
37782;DHT22;23621;50.878;4.584;2023-07-13T07:34:01;25.20;67.50
37782;DHT22;23621;50.878;4.584;2023-07-13T07:36:48;25.20;67.50
37782;DHT22;23621;50.878;4.584;2023-07-13T07:39:38;25.10;67.50
37782;DHT22;23621;50.878;4.584;2023-07-13T07:42:30;25.00;67.60
37782;DHT22;23621;50.878;4.584;2023-07-13T07:45:18;25.00;67.50
37782;DHT22;23621;50.878;4.584;2023-07-13T07:48:06;24.90;67.70
37782;DHT22;23621;50.878;4.584;2023-07-13T07:50:53;24.90;67.80
37782;DHT22;23621;50.878;4.584;2023-07-13T07:53:41;25.00;67.80
37782;DHT22;23621;50.878;4.584;2023-07-13T07:56:29;25.00;67.80
37782;DHT22;23621;50.878;4.584;2023-07-13T07:59:19;25.00;67.70
37782;DHT22;23621;50.878;4.584;2023-07-13T08:02:10;25.00;67.70
37782;DHT22;23621;50.878;4.584;2023-07-13T08:05:18;25.10;68.00
37782;DHT22;23621;50.878;4.584;2023-07-13T08:08:08;25.10;67.90
37782;DHT22;23621;50.878;4.584;2023-07-13T08:10:57;25.20;67.60
37782;DHT22;23621;50.878;4.584;2023-07-13T08:14:00;25.20;67.30
37782;DHT22;23621;50.878;4.584;2023-07-13T08:16:48;25.20;67.20
37782;DHT22;23621;50.878;4.584;2023-07-13T08:19:35;25.30;67.30
37782;DHT22;23621;50.878;4.584;2023-07-13T08:22:22;25.30;67.30
37782;DHT22;23621;50.878;4.584;2023-07-13T08:25:09;25.50;67.30
37782;DHT22;23621;50.878;4.584;2023-07-13T08:27:57;25.60;66.90
37782;DHT22;23621;50.878;4.584;2023-07-13T08:30:44;25.80;66.80
37782;DHT22;23621;50.878;4.584;2023-07-13T08:33:31;25.80;66.10
37782;DHT22;23621;50.878;4.584;2023-07-13T08:36:18;25.90;65.80
37782;DHT22;23621;50.878;4.584;2023-07-13T08:39:05;25.90;65.60
37782;DHT22;23621;50.878;4.584;2023-07-13T08:42:00;25.90;65.40
37782;DHT22;23621;50.878;4.584;2023-07-13T08:48:13;26.10;64.80
37782;DHT22;23621;50.878;4.584;2023-07-13T08:54:31;26.10;65.20
37782;DHT22;23621;50.878;4.584;2023-07-13T08:57:23;26.30;65.00
37782;DHT22;23621;50.878;4.584;2023-07-13T09:00:21;26.10;64.30
37782;DHT22;23621;50.878;4.584;2023-07-13T09:03:18;26.20;64.40
37782;DHT22;23621;50.878;4.584;2023-07-13T09:06:09;26.30;64.30
37782;DHT22;23621;50.878;4.584;2023-07-13T09:09:17;26.30;64.30
37782;DHT22;23621;50.878;4.584;2023-07-13T09:12:19;26.30;64.20
37782;DHT22;23621;50.878;4.584;2023-07-13T09:15:40;26.20;64.30
37782;DHT22;23621;50.878;4.584;2023-07-13T09:18:37;26.20;64.30
37782;DHT22;23621;50.878;4.584;2023-07-13T09:21:33;26.40;63.70
37782;DHT22;23621;50.878;4.584;2023-07-13T09:24:38;26.40;64.20
37782;DHT22;23621;50.878;4.584;2023-07-13T09:27:39;26.50;63.70
37782;DHT22;23621;50.878;4.584;2023-07-13T09:30:46;26.70;63.40
37782;DHT22;23621;50.878;4.584;2023-07-13T09:33:39;26.80;63.10
37782;DHT22;23621;50.878;4.584;2023-07-13T09:36:33;26.80;63.20
37782;DHT22;23621;50.878;4.584;2023-07-13T09:39:30;26.90;63.00
37782;DHT22;23621;50.878;4.584;2023-07-13T09:42:20;26.90;62.00
37782;DHT22;23621;50.878;4.584;2023-07-13T09:45:08;27.00;61.70
37782;DHT22;23621;50.878;4.584;2023-07-13T09:48:05;27.00;61.50
37782;DHT22;23621;50.878;4.584;2023-07-13T09:50:55;27.00;61.50
37782;DHT22;23621;50.878;4.584;2023-07-13T09:53:44;27.10;61.20
37782;DHT22;23621;50.878;4.584;2023-07-13T09:56:31;27.00;61.00
37782;DHT22;23621;50.878;4.584;2023-07-13T09:59:26;27.20;60.90
37782;DHT22;23621;50.878;4.584;2023-07-13T10:02:27;27.30;61.00
37782;DHT22;23621;50.878;4.584;2023-07-13T10:05:15;27.50;60.70
37782;DHT22;23621;50.878;4.584;2023-07-13T10:08:03;27.60;60.60
37782;DHT22;23621;50.878;4.584;2023-07-13T10:11:11;27.50;60.60
37782;DHT22;23621;50.878;4.584;2023-07-13T10:14:01;27.70;60.80
37782;DHT22;23621;50.878;4.584;2023-07-13T10:16:52;27.80;60.10
37782;DHT22;23621;50.878;4.584;2023-07-13T10:19:42;27.80;60.30
37782;DHT22;23621;50.878;4.584;2023-07-13T10:23:04;27.80;59.80
37782;DHT22;23621;50.878;4.584;2023-07-13T10:25:52;27.80;59.70
37782;DHT22;23621;50.878;4.584;2023-07-13T10:28:41;27.70;59.50
37782;DHT22;23621;50.878;4.584;2023-07-13T10:31:32;27.80;59.50
37782;DHT22;23621;50.878;4.584;2023-07-13T10:34:19;27.70;59.00
37782;DHT22;23621;50.878;4.584;2023-07-13T10:37:18;27.80;58.70
37782;DHT22;23621;50.878;4.584;2023-07-13T10:40:17;27.90;59.40
37782;DHT22;23621;50.878;4.584;2023-07-13T10:43:14;28.00;59.40
37782;DHT22;23621;50.878;4.584;2023-07-13T10:46:08;28.00;59.60
37782;DHT22;23621;50.878;4.584;2023-07-13T10:49:01;28.10;59.30
37782;DHT22;23621;50.878;4.584;2023-07-13T10:51:49;28.30;59.70
37782;DHT22;23621;50.878;4.584;2023-07-13T10:54:41;28.40;59.90
37782;DHT22;23621;50.878;4.584;2023-07-13T10:57:29;28.50;58.10
37782;DHT22;23621;50.878;4.584;2023-07-13T11:00:18;28.40;57.60
37782;DHT22;23621;50.878;4.584;2023-07-13T11:03:14;28.20;57.00
37782;DHT22;23621;50.878;4.584;2023-07-13T11:15:11;28.20;57.90
37782;DHT22;23621;50.878;4.584;2023-07-13T11:18:03;28.00;57.20
37782;DHT22;23621;50.878;4.584;2023-07-13T11:20:51;28.00;57.90
37782;DHT22;23621;50.878;4.584;2023-07-13T11:23:42;28.00;57.80
37782;DHT22;23621;50.878;4.584;2023-07-13T11:29:38;27.90;57.00
37782;DHT22;23621;50.878;4.584;2023-07-13T11:32:31;28.10;57.70
37782;DHT22;23621;50.878;4.584;2023-07-13T11:35:23;28.10;56.80
37782;DHT22;23621;50.878;4.584;2023-07-13T11:38:38;28.20;56.60
37782;DHT22;23621;50.878;4.584;2023-07-13T11:41:38;28.30;57.00
37782;DHT22;23621;50.878;4.584;2023-07-13T11:44:32;28.30;56.60
37782;DHT22;23621;50.878;4.584;2023-07-13T11:47:21;28.30;56.70
37782;DHT22;23621;50.878;4.584;2023-07-13T11:50:21;28.50;56.80
37782;DHT22;23621;50.878;4.584;2023-07-13T11:53:09;28.60;55.70
37782;DHT22;23621;50.878;4.584;2023-07-13T11:55:57;28.80;55.60
37782;DHT22;23621;50.878;4.584;2023-07-13T11:58:49;28.80;55.90
37782;DHT22;23621;50.878;4.584;2023-07-13T12:01:46;28.90;55.90
37782;DHT22;23621;50.878;4.584;2023-07-13T12:04:35;28.80;55.30
37782;DHT22;23621;50.878;4.584;2023-07-13T12:07:22;28.70;55.40
37782;DHT22;23621;50.878;4.584;2023-07-13T12:10:28;28.60;55.50
37782;DHT22;23621;50.878;4.584;2023-07-13T12:13:19;28.40;55.80
37782;DHT22;23621;50.878;4.584;2023-07-13T12:19:36;28.10;56.60
37782;DHT22;23621;50.878;4.584;2023-07-13T12:22:24;27.90;57.80
37782;DHT22;23621;50.878;4.584;2023-07-13T12:25:12;27.90;58.50
37782;DHT22;23621;50.878;4.584;2023-07-13T12:28:21;27.90;58.80
37782;DHT22;23621;50.878;4.584;2023-07-13T12:34:20;27.80;57.80
37782;DHT22;23621;50.878;4.584;2023-07-13T12:37:11;27.70;56.90
37782;DHT22;23621;50.878;4.584;2023-07-13T12:39:59;27.60;57.00
37782;DHT22;23621;50.878;4.584;2023-07-13T12:42:47;27.70;57.00
37782;DHT22;23621;50.878;4.584;2023-07-13T12:45:35;27.70;57.00
37782;DHT22;23621;50.878;4.584;2023-07-13T12:48:23;27.80;58.40
37782;DHT22;23621;50.878;4.584;2023-07-13T12:51:33;27.80;59.60
37782;DHT22;23621;50.878;4.584;2023-07-13T12:54:20;27.70;59.90
37782;DHT22;23621;50.878;4.584;2023-07-13T12:57:16;27.40;59.60
37782;DHT22;23621;50.878;4.584;2023-07-13T13:00:04;27.20;59.50
37782;DHT22;23621;50.878;4.584;2023-07-13T13:02:53;27.00;60.50
37782;DHT22;23621;50.878;4.584;2023-07-13T13:08:57;26.70;62.60
37782;DHT22;23621;50.878;4.584;2023-07-13T13:11:45;26.80;64.10
37782;DHT22;23621;50.878;4.584;2023-07-13T13:14:32;26.70;64.70
37782;DHT22;23621;50.878;4.584;2023-07-13T13:17:21;26.70;65.70
37782;DHT22;23621;50.878;4.584;2023-07-13T13:20:19;26.70;66.50
37782;DHT22;23621;50.878;4.584;2023-07-13T13:23:15;26.70;67.10
37782;DHT22;23621;50.878;4.584;2023-07-13T13:26:10;26.70;67.30
37782;DHT22;23621;50.878;4.584;2023-07-13T13:28:58;26.80;67.60
37782;DHT22;23621;50.878;4.584;2023-07-13T13:31:46;26.80;67.60
37782;DHT22;23621;50.878;4.584;2023-07-13T13:34:33;26.90;67.40
37782;DHT22;23621;50.878;4.584;2023-07-13T13:37:23;27.00;67.10
37782;DHT22;23621;50.878;4.584;2023-07-13T13:40:21;27.20;67.00
37782;DHT22;23621;50.878;4.584;2023-07-13T13:43:24;27.30;67.50
37782;DHT22;23621;50.878;4.584;2023-07-13T13:46:18;27.40;67.00
37782;DHT22;23621;50.878;4.584;2023-07-13T13:49:13;27.40;66.20
37782;DHT22;23621;50.878;4.584;2023-07-13T13:52:01;27.40;65.50
37782;DHT22;23621;50.878;4.584;2023-07-13T13:54:48;27.50;65.70
37782;DHT22;23621;50.878;4.584;2023-07-13T13:57:35;27.70;65.50
37782;DHT22;23621;50.878;4.584;2023-07-13T14:00:26;27.90;65.20
37782;DHT22;23621;50.878;4.584;2023-07-13T14:03:18;28.10;64.20
37782;DHT22;23621;50.878;4.584;2023-07-13T14:06:10;28.20;63.60
37782;DHT22;23621;50.878;4.584;2023-07-13T14:09:18;28.30;63.10
37782;DHT22;23621;50.878;4.584;2023-07-13T14:12:10;28.40;62.80
37782;DHT22;23621;50.878;4.584;2023-07-13T14:14:58;28.60;62.50
37782;DHT22;23621;50.878;4.584;2023-07-13T14:17:46;28.80;61.40
37782;DHT22;23621;50.878;4.584;2023-07-13T14:20:36;28.70;60.20
37782;DHT22;23621;50.878;4.584;2023-07-13T14:23:23;28.80;59.80
37782;DHT22;23621;50.878;4.584;2023-07-13T14:26:19;28.80;59.80
37782;DHT22;23621;50.878;4.584;2023-07-13T14:29:15;28.90;59.90
37782;DHT22;23621;50.878;4.584;2023-07-13T14:32:05;29.00;59.00
37782;DHT22;23621;50.878;4.584;2023-07-13T14:34:53;29.10;59.50
37782;DHT22;23621;50.878;4.584;2023-07-13T14:37:41;29.20;59.20
37782;DHT22;23621;50.878;4.584;2023-07-13T14:40:30;29.20;58.40
37782;DHT22;23621;50.878;4.584;2023-07-13T14:43:18;29.20;58.20
37782;DHT22;23621;50.878;4.584;2023-07-13T14:46:07;29.30;58.00
37782;DHT22;23621;50.878;4.584;2023-07-13T14:52:24;29.40;57.00
37782;DHT22;23621;50.878;4.584;2023-07-13T14:55:17;29.30;57.30
37782;DHT22;23621;50.878;4.584;2023-07-13T14:58:06;29.30;57.40
37782;DHT22;23621;50.878;4.584;2023-07-13T15:00:53;29.20;57.00
37782;DHT22;23621;50.878;4.584;2023-07-13T15:03:45;29.20;57.40
37782;DHT22;23621;50.878;4.584;2023-07-13T15:06:52;29.10;57.50
37782;DHT22;23621;50.878;4.584;2023-07-13T15:09:40;29.10;57.00
37782;DHT22;23621;50.878;4.584;2023-07-13T15:12:27;29.20;56.80
37782;DHT22;23621;50.878;4.584;2023-07-13T15:15:15;29.30;56.50
37782;DHT22;23621;50.878;4.584;2023-07-13T15:18:02;29.40;56.30
37782;DHT22;23621;50.878;4.584;2023-07-13T15:20:50;29.40;54.90
37782;DHT22;23621;50.878;4.584;2023-07-13T15:23:39;29.50;54.70
37782;DHT22;23621;50.878;4.584;2023-07-13T15:26:27;29.60;54.60
37782;DHT22;23621;50.878;4.584;2023-07-13T15:29:14;29.70;54.70
37782;DHT22;23621;50.878;4.584;2023-07-13T15:32:02;29.90;54.70
37782;DHT22;23621;50.878;4.584;2023-07-13T15:34:50;30.10;54.50
37782;DHT22;23621;50.878;4.584;2023-07-13T15:37:37;30.30;54.40
37782;DHT22;23621;50.878;4.584;2023-07-13T15:40:24;30.30;54.00
37782;DHT22;23621;50.878;4.584;2023-07-13T15:43:13;30.50;54.10
37782;DHT22;23621;50.878;4.584;2023-07-13T15:46:00;30.90;54.70
37782;DHT22;23621;50.878;4.584;2023-07-13T15:48:49;31.50;52.90
37782;DHT22;23621;50.878;4.584;2023-07-13T15:51:36;32.70;51.10
37782;DHT22;23621;50.878;4.584;2023-07-13T15:54:24;34.10;49.70
37782;DHT22;23621;50.878;4.584;2023-07-13T15:57:11;35.60;48.40
37782;DHT22;23621;50.878;4.584;2023-07-13T15:59:59;36.90;46.20
37782;DHT22;23621;50.878;4.584;2023-07-13T16:02:48;37.90;44.90
37782;DHT22;23621;50.878;4.584;2023-07-13T16:05:36;38.50;43.30
37782;DHT22;23621;50.878;4.584;2023-07-13T16:08:27;39.00;42.30
37782;DHT22;23621;50.878;4.584;2023-07-13T16:11:26;39.30;42.20
37782;DHT22;23621;50.878;4.584;2023-07-13T16:14:15;40.00;41.30
37782;DHT22;23621;50.878;4.584;2023-07-13T16:17:03;40.50;41.10
37782;DHT22;23621;50.878;4.584;2023-07-13T16:19:52;41.00;40.20
37782;DHT22;23621;50.878;4.584;2023-07-13T16:22:45;41.40;39.70
37782;DHT22;23621;50.878;4.584;2023-07-13T16:25:33;41.70;39.10
37782;DHT22;23621;50.878;4.584;2023-07-13T16:28:20;41.80;38.40
37782;DHT22;23621;50.878;4.584;2023-07-13T16:31:09;40.90;38.40
37782;DHT22;23621;50.878;4.584;2023-07-13T16:33:58;39.60;39.50
37782;DHT22;23621;50.878;4.584;2023-07-13T16:36:48;38.30;40.50
37782;DHT22;23621;50.878;4.584;2023-07-13T16:39:35;37.10;41.60
37782;DHT22;23621;50.878;4.584;2023-07-13T16:42:23;36.20;42.30
37782;DHT22;23621;50.878;4.584;2023-07-13T16:45:11;35.40;43.20
37782;DHT22;23621;50.878;4.584;2023-07-13T16:48:00;34.80;44.00
37782;DHT22;23621;50.878;4.584;2023-07-13T16:50:54;34.10;44.60
37782;DHT22;23621;50.878;4.584;2023-07-13T16:53:43;33.50;45.20
37782;DHT22;23621;50.878;4.584;2023-07-13T16:56:30;32.90;44.90
37782;DHT22;23621;50.878;4.584;2023-07-13T16:59:22;32.50;44.90
37782;DHT22;23621;50.878;4.584;2023-07-13T17:02:31;32.30;45.70
37782;DHT22;23621;50.878;4.584;2023-07-13T17:05:18;32.20;47.40
37782;DHT22;23621;50.878;4.584;2023-07-13T17:08:18;32.10;47.60
37782;DHT22;23621;50.878;4.584;2023-07-13T17:11:10;31.90;47.70
37782;DHT22;23621;50.878;4.584;2023-07-13T17:13:58;31.80;48.30
37782;DHT22;23621;50.878;4.584;2023-07-13T17:16:47;31.60;48.70
37782;DHT22;23621;50.878;4.584;2023-07-13T17:19:34;32.40;48.70
37782;DHT22;23621;50.878;4.584;2023-07-13T17:22:22;33.70;47.70
37782;DHT22;23621;50.878;4.584;2023-07-13T17:25:12;34.40;46.70
37782;DHT22;23621;50.878;4.584;2023-07-13T17:28:00;34.40;46.10
37782;DHT22;23621;50.878;4.584;2023-07-13T17:30:51;34.60;46.40
37782;DHT22;23621;50.878;4.584;2023-07-13T17:33:39;34.90;46.60
37782;DHT22;23621;50.878;4.584;2023-07-13T17:36:27;35.60;45.50
37782;DHT22;23621;50.878;4.584;2023-07-13T17:39:20;36.10;46.10
37782;DHT22;23621;50.878;4.584;2023-07-13T17:42:07;36.70;44.20
37782;DHT22;23621;50.878;4.584;2023-07-13T17:44:54;37.50;43.20
37782;DHT22;23621;50.878;4.584;2023-07-13T17:47:41;37.40;42.30
37782;DHT22;23621;50.878;4.584;2023-07-13T17:50:32;37.30;41.50
37782;DHT22;23621;50.878;4.584;2023-07-13T17:53:23;37.70;42.00
37782;DHT22;23621;50.878;4.584;2023-07-13T17:56:11;38.50;41.40
37782;DHT22;23621;50.878;4.584;2023-07-13T17:58:59;39.20;40.10
37782;DHT22;23621;50.878;4.584;2023-07-13T18:01:47;39.00;39.60
37782;DHT22;23621;50.878;4.584;2023-07-13T18:04:35;38.20;40.10
37782;DHT22;23621;50.878;4.584;2023-07-13T18:07:24;37.20;41.30
37782;DHT22;23621;50.878;4.584;2023-07-13T18:10:15;36.60;41.70
37782;DHT22;23621;50.878;4.584;2023-07-13T18:13:03;36.00;42.10
37782;DHT22;23621;50.878;4.584;2023-07-13T18:15:51;35.30;42.90
37782;DHT22;23621;50.878;4.584;2023-07-13T18:18:39;34.70;43.00
37782;DHT22;23621;50.878;4.584;2023-07-13T18:21:27;34.00;44.20
37782;DHT22;23621;50.878;4.584;2023-07-13T18:24:14;33.50;45.10
37782;DHT22;23621;50.878;4.584;2023-07-13T18:27:01;33.10;45.80
37782;DHT22;23621;50.878;4.584;2023-07-13T18:29:48;32.70;45.50